Red Lake Airport
CYRL : now visible

Airfield :











YOU CAN JOIN US ON...

 
LOGIN :

Register | Disclaimer

   EN    FR    IT 

 









Legend :    VFR   Marginal VFR   IFR   Intensive IFR   Very Intensive IFR
Visi :
Ceiling :
>= 8 km
>= 3000ft
5 to 8 km
1000 to 3000 ft
1500m to 5 km
500 to 1000 ft
800 to 1500m
200 to 500 ft
< 800m
< 200 ft
Symbols :   Thunderstorms  Fog  Heavy snow  Heavy precipitations  Wind > 20 kt






- Airport Elevation : 1265 ft
- IATA code : YRL


CYRL - Red Lake

CURRENT METAR :
  • 301614Z VRB03KT 1 1/4SM FU BR BKN013 OVC022 16/15 A3005 RMK FU4ST2SC2 PRESRR SLP186 DENSITY ALT 1600FT

EXPIRED METARs :
  • 301600Z 18003KT 120V200 1 1/2SM FU BKN022 OVC035 16/15 A3003 RMK FU4SC3SC1 SLP178 DENSITY ALT 1600FT
  • 301530Z 00000KT 1 1/2SM -SHRA FU BKN020 OVC035TCU 17/15 A3005 RMK FU5SC2TCU1 TCU OVRHD MOVG S SLP183 DENSITY ALT 1700FT
  • 301500Z 17003KT 130V200 1 1/4SM FU BR OVC035TCU 16/14 A3004 RMK FU6TCU2 OCNL -SHRA SLP180 DENSITY ALT 1600FT
  • 301450Z 17005KT 130V200 1 1/4SM -SHRA FU BR OVC035TCU 16/14 A3003 RMK FU6TCU2 TCU W-N QUADS MOVG S SLP179 DENSITY ALT 1600FT
  • 301440Z 15006KT 1SM FU BR BKN040 16/14 A3003 RMK FU6SC1 SLP179 DENSITY ALT 1600FT
  • 301400Z 13005KT 3/4SM FU BR OVC030 15/14 A3006 RMK FU6SC2 VIS VRB 1/2-1 SLP187 DENSITY ALT 1400FT
  • 301325Z 09006KT 3/4SM FU BR BKN025CB 14/14 A3006 RMK FU7CB1 CB TR CB S QUAD MOVG S SLP187 DENSITY ALT 1400FT

TAF TAF CYRL
Valid from the 30 at 14:00 until the 31 at 02:00 UTC


301341Z 3014/3102 09005KT 3/4SM -SHRA BR FU OVC020
TEMPO 3014/3016 6SM FU OVC025
PROB30 3014/3016 3/4SM TSRA BR BKN020 OVC040CB
FM301600 18008KT 2SM -SHRA BR FU OVC020
TEMPO 3016/3018 6SM FU OVC025
PROB30 3016/3018 3/4SM TSRA BR BKN020 OVC040CB
FM301800 27010KT P6SM BKN060
TEMPO 3018/3024 5SM -SHRA FU
PROB30 3018/3024 VRB15G25KT 2SM TSRA BR BKN020 OVC030CB
FM310000 34008KT P6SM BKN040
TEMPO 3100/3102 4SM FU
PROB30 3100/3102 2SM FU RMK NXT FCST BY 302000Z
CZWG FIR / North America



MET'MAP, your aeronautical weather chart ! - Copyright ORBIFLY December 2007 - Disclaimer

ORBIFLY MET'MAP TEAM :

Programming & Development : Alexandra Zaïnal
Concept & original design : Baudouin d'Aumeries
Assistance for programming : Marc-Olivier Méhu
Technical & hardware support : Manuel Goepfert

Contact : metmap@orbifly.com




SOURCES & CREDITS :

   NOAA       Earth
Advisory